Wednesday, January 17, 2018, 4:58 PM EST
Back to Local

KILG, Wilmington New Castle Co

Location: New Castle, DE, United States Lat: 39.667
Local Time: 4:58 PM EST (21:58 GMT) Lon: -75.6
Time Zone: US/Eastern Elev: 78 ft

Show me the last for .
Show Decoded

2018-01-17 15:51 METAR KILG 172051Z 31013KT 10SM FEW120 M05/M11 A3028 RMK AO2 SLP255 T10501111
                 56009 $ =
2018-01-17 14:51 METAR KILG 171951Z 31015KT 10SM CLR M04/M11 A3029 RMK AO2 SLP257 T10441111 =
2018-01-17 13:51 METAR KILG 171851Z 30014KT 10SM CLR M04/M10 A3030 RMK AO2 SLP260 T10441100 =
2018-01-17 12:51 METAR KILG 171751Z 31015KT 10SM CLR M04/M10 A3031 RMK AO2 SLP264 60005 T10391100
                 11006 21044 58018 =
2018-01-17 12:11 METAR KILG 171711Z 31016KT 10SM CLR M04/M08 A3032 RMK AO2 T10391083 =
2018-01-17 11:51 METAR KILG 171651Z 33016KT 10SM FEW075 M04/M08 A3033 RMK AO2 UPB1557E03 SLP273
                 P0000 T10391078 =
2018-01-17 10:51 METAR KILG 171551Z 31015KT 10SM FEW044 SCT060 BKN075 M04/M07 A3036 RMK AO2
                 UPB03E39SNE03 SLP283 P0000 T10391067 =
2018-01-17 09:56 METAR KILG 171456Z 31014G20KT 4SM -SN BR FEW014 BKN030 OVC042 M03/M05 A3036 RMK
                 AO2 P0000 T10331050 =
2018-01-17 09:51 METAR KILG 171451Z 31011KT 2 1/2SM -SN BR FEW014 BKN026 OVC039 M03/M05 A3036 RMK
                 AO2 SLP282 P0002 60005 T10331050 51011 =
2018-01-17 09:45 METAR KILG 171445Z 31013KT 2SM -SN BR FEW014 BKN024 OVC037 M03/M05 A3036 RMK AO2
                 P0002 =
2018-01-17 09:25 METAR KILG 171425Z 31013KT 1SM R01/6000VP6000FT -SN BR BKN011 OVC017 M03/M04
                 A3036 RMK AO2 P0002 T10281044 =
2018-01-17 09:03 METAR KILG 171403Z 31012KT 3/4SM R01/4000V5000FT -SN BR BKN011 OVC015 M03/M03
                 A3035 RMK AO2 P0001 T10281033 =
2018-01-17 08:51 METAR KILG 171351Z 31010KT 3/4SM R01/5000V6000FT -SN BR SCT011 BKN016 OVC021
                 M02/M03 A3035 RMK AO2 SLP276 P0001 T10221033 =
2018-01-17 08:48 METAR KILG 171348Z 31013KT 3/4SM R01/5000V5500FT -SN BR SCT011 OVC018 M02/M03
                 A3035 RMK AO2 P0001 =
2018-01-17 08:34 METAR KILG 171334Z 31011KT 3/4SM R01/5500VP6000FT -SN BR BKN011 BKN015 OVC021
                 M02/M03 A3034 RMK AO2 P0001 T10171028 =
2018-01-17 08:26 METAR KILG 171326Z 32009KT 1SM R01/5500VP6000FT -SN BR FEW007 BKN015 OVC021
                 M02/M03 A3034 RMK AO2 P0001 T10171028 =
2018-01-17 08:20 METAR KILG 171320Z 31010G19KT 3/4SM R01/5500VP6000FT -SN BR BKN009 OVC015
                 M02/M03 A3033 RMK AO2 P0001 T10171028 =
2018-01-17 08:10 METAR KILG 171310Z 31009KT 3/4SM R01/5500VP6000FT -SN BR SCT008 OVC015 M01/M02
                 A3033 RMK AO2 P0000 T10111022 =
2018-01-17 08:03 METAR KILG 171303Z 32007KT 3/4SM R01/5500VP6000FT -SN BR BKN010 OVC015 M01/M02
                 A3033 RMK AO2 P0000 T10111022 =
2018-01-17 08:00 METAR KILG 171300Z 32009KT 1SM R01/6000VP6000FT -SN BR SCT010 OVC015 M01/M02
                 A3033 RMK AO2 P0000 T10111022 =
2018-01-17 07:58 METAR KILG 171258Z 32010KT 1SM R01/6000VP6000FT -SN BR OVC013 M01/M02 A3033 RMK
                 AO2 P0000 T10111022 =
2018-01-17 07:51 METAR KILG 171251Z 32010KT 3/4SM R01/6000VP6000FT -SN BR BKN013 OVC020 M01/M02
                 A3033 RMK AO2 SLP270 P0002 T10111022 =
2018-01-17 07:44 METAR KILG 171244Z 33013KT 3/4SM R01/P6000FT -SN BR SCT009 OVC013 M01/M02 A3033
                 RMK AO2 P0002 T10111022 =
2018-01-17 07:21 METAR KILG 171221Z 31008KT 1 1/2SM -SN BR BKN007 BKN013 OVC018 M01/M01 A3033 RMK
                 AO2 P0001 T10061011 =
2018-01-17 07:14 METAR KILG 171214Z 30007KT 1 1/4SM -SN BR SCT007 SCT011 OVC018 M01/M01 A3033 RMK
                 AO2 P0001 T10061011 =
2018-01-17 07:01 METAR KILG 171201Z 33009KT 1 1/4SM -SN BR SCT011 OVC018 M01/M01 A3032 RMK AO2
                 P0001 T10061011 =
2018-01-17 06:51 METAR KILG 171151Z 32015KT 1 3/4SM -SN BR BKN011 OVC020 M01/M01 A3032 RMK AO2
                 SLP268 P0001 60007 70007 T10061011 10017 21006 53012 =
2018-01-17 06:24 METAR KILG 171124Z 31009KT 1 1/2SM -SN BR BKN009 OVC013 00/M01 A3031 RMK AO2 CIG
                 006V012 P0001 T00001006 =
2018-01-17 05:51 METAR KILG 171051Z 32006KT 1 1/2SM -SN BR OVC010 00/00 A3030 RMK AO2 SLP260
                 P0001 T00000000 =
2018-01-17 05:33 METAR KILG 171033Z 31008KT 1 1/2SM -SN BR BKN009 OVC027 01/00 A3030 RMK AO2
                 P0001 T00060000 =
2018-01-17 05:04 METAR KILG 171004Z 32011KT 1 3/4SM -SN BR FEW009 BKN037 OVC055 01/00 A3029 RMK
                 AO2 P0000 T00060000 =
2018-01-17 04:56 METAR KILG 170956Z 32011KT 2SM -SN BR SCT009 BKN023 OVC055 01/00 A3029 RMK AO2
                 P0000 T00060000 =
2018-01-17 04:51 METAR KILG 170951Z 33009KT 1 3/4SM -SN BR BKN009 BKN023 OVC028 01/00 A3029 RMK
                 AO2 SLP258 P0001 T00060000 =
2018-01-17 04:44 METAR KILG 170944Z 33007KT 1 3/4SM -SN BR BKN008 OVC022 01/00 A3029 RMK AO2
                 P0001 T00060000 =
2018-01-17 04:30 METAR KILG 170930Z 32007KT 2SM -SN BR BKN008 OVC022 01/00 A3029 RMK AO2 P0001
                 T00060000 =
2018-01-17 04:19 METAR KILG 170919Z 32007KT 2SM -SN BR SCT008 OVC023 01/01 A3029 RMK AO2 P0001
                 T00060006 =
2018-01-17 04:11 METAR KILG 170911Z 32007KT 2SM -SN BR OVC023 01/01 A3029 RMK AO2 P0001 T00060006
                 =
2018-01-17 03:51 METAR KILG 170851Z 32007KT 1 3/4SM -SN BR OVC019 01/01 A3029 RMK AO2
                 RAE04UPB04E07SNB07 SLP256 P0001 60004 T00060006 56004 =
2018-01-17 03:15 METAR KILG 170815Z 33008KT 2 1/2SM -SN BR FEW007 OVC017 01/01 A3030 RMK AO2
                 RAE04UPB04E07SNB07 P0000 T00110006 =
2018-01-17 02:51 METAR KILG 170751Z 33008KT 4SM -RA BR SCT019 BKN029 OVC041 01/01 A3029 RMK AO2
                 SLP259 P0002 T00110006 =
2018-01-17 02:29 METAR KILG 170729Z 33007KT 4SM -RA BR SCT027 SCT032 OVC041 01/01 A3029 RMK AO2
                 P0002 T00110006 =
2018-01-17 01:51 METAR KILG 170651Z 34008KT 5SM -RA BR OVC017 02/01 A3030 RMK AO2 RAB0557UPB23E30
                 SLP261 P0001 T00170006 =
2018-01-17 00:51 METAR KILG 170551Z 33004KT 10SM OVC019 02/00 A3030 RMK AO2 SLP263 T00220000
                 10028 20011 56017 =
2018-01-16 23:51 METAR KILG 170451Z 34003KT 10SM OVC020 02/00 A3032 RMK AO2 SLP268 T00220000
                 400561017 =
2018-01-16 22:51 METAR KILG 170351Z 31005KT 10SM OVC022 02/00 A3033 RMK AO2 SLP273 T00220000 =
2018-01-16 22:35 METAR KILG 170335Z 33005KT 10SM BKN024 OVC040 02/00 A3034 RMK AO2 T00220000 =
2018-01-16 21:51 METAR KILG 170251Z 31004KT 10SM FEW022 SCT030 OVC038 02/00 A3035 RMK AO2 SLP279
                 T00220000 56003 =
2018-01-16 21:39 METAR KILG 170239Z 32003KT 10SM BKN022 BKN030 OVC035 02/00 A3035 RMK AO2
                 T00220000 =
2018-01-16 20:51 METAR KILG 170151Z 01003KT 10SM SCT022 BKN033 02/00 A3036 RMK AO2 SLP281
                 T00220000 =
2018-01-16 20:02 METAR KILG 170102Z 00000KT 10SM BKN030 02/00 A3037 RMK AO2 T00170000 =
2018-01-16 19:51 METAR KILG 170051Z 00000KT 10SM BKN029 02/00 A3036 RMK AO2 SLP283 T00220000 =
2018-01-16 19:41 METAR KILG 170041Z 00000KT 10SM BKN029 03/00 A3037 RMK AO2 T00280000 =
2018-01-16 18:51 METAR KILG 162351Z 13005KT 10SM CLR 03/00 A3037 RMK AO2 SLP286 60000 T00280000
                 10056 20022 58000 =
2018-01-16 18:20 METAR KILG 162320Z 19003KT 10SM SCT026 03/00 A3038 RMK AO2 T00330000 =
2018-01-16 18:02 METAR KILG 162302Z 21003KT 10SM BKN026 04/00 A3038 RMK AO2 T00390000 =
2018-01-16 17:51 METAR KILG 162251Z 23003KT 10SM SCT026 03/00 A3038 RMK AO2 SLP288 T00330000 =

Support USWX by starting your Amazon purchase here.